Time;durP1;ratioP1;P1;durP2;ratioP2;P2;SDS_P1;SDS_P2;PMS_P1;PMS_P2;Temp;Humidity;BMP_temperature;BMP_pressure;BME280_temperature;BME280_humidity;BME280_pressure;Samples;Min_cycle;Max_cycle;Signal;HPM_P1;HPM_P2
2021/11/23 00:02:17;;;;;;;17.90;8.80;;;;;;;4.78;86.22;103116.41;5038783;28;20028;-66
2021/11/23 00:04:43;;;;;;;22.10;9.15;;;;;;;4.77;85.42;103124.97;5056447;28;20511;-66
2021/11/23 00:07:08;;;;;;;20.25;8.75;;;;;;;4.73;85.58;103123.53;5056505;28;20029;-66
2021/11/23 00:09:33;;;;;;;18.83;8.88;;;;;;;4.77;86.22;103109.59;5056492;28;20460;-66
2021/11/23 00:11:58;;;;;;;15.95;8.70;;;;;;;4.85;86.52;103114.28;5056488;28;20111;-66
2021/11/23 00:14:24;;;;;;;23.25;8.63;;;;;;;4.85;86.03;103112.53;5056425;28;20104;-66
2021/11/23 00:16:49;;;;;;;17.45;9.13;;;;;;;4.87;86.17;103117.59;5038411;28;20115;-66
2021/11/23 00:19:14;;;;;;;16.40;8.38;;;;;;;4.84;86.09;103115.22;5056225;28;20021;-66
2021/11/23 00:21:40;;;;;;;23.63;8.55;;;;;;;4.91;86.94;103112.16;5055960;28;20033;-66
2021/11/23 00:24:07;;;;;;;17.05;8.20;;;;;;;5.02;86.96;103121.78;5055903;28;20025;-66
2021/11/23 00:26:32;;;;;;;18.67;9.07;;;;;;;5.00;86.22;103120.22;5055978;28;20025;-66
2021/11/23 00:28:57;;;;;;;20.73;8.98;;;;;;;5.06;86.30;103107.84;5056103;28;20491;-66
2021/11/23 00:31:22;;;;;;;17.88;8.60;;;;;;;5.08;86.79;103112.88;5056046;28;20483;-66
2021/11/23 00:33:48;;;;;;;18.63;8.50;;;;;;;5.10;86.26;103108.50;5056132;28;20036;-67
2021/11/23 00:36:13;;;;;;;18.15;9.13;;;;;;;5.15;86.36;103111.59;5055997;28;20031;-66
2021/11/23 00:38:42;;;;;;;19.77;8.30;;;;;;;5.16;86.33;103123.50;5055884;28;20021;-66
2021/11/23 00:41:13;;;;;;;19.65;7.80;;;;;;;5.22;86.78;103112.06;5056484;28;20021;-66
2021/11/23 00:43:40;;;;;;;15.95;7.63;;;;;;;5.24;86.13;103107.66;5056373;28;20029;-67
2021/11/23 00:46:05;;;;;;;19.70;7.57;;;;;;;5.22;86.21;103112.06;5056147;28;20056;-66
2021/11/23 00:48:30;;;;;;;18.90;7.85;;;;;;;5.26;86.08;103110.94;5055757;28;20060;-66
2021/11/23 00:50:56;;;;;;;16.63;7.60;;;;;;;5.23;86.39;103101.69;5055776;28;20431;-65
2021/11/23 00:53:21;;;;;;;17.77;7.50;;;;;;;5.34;86.62;103108.72;5055647;28;20024;-65
2021/11/23 00:55:47;;;;;;;15.77;6.93;;;;;;;5.41;86.65;103103.13;5055650;28;20021;-66
2021/11/23 00:58:12;;;;;;;15.15;6.43;;;;;;;5.50;86.24;103095.78;5055659;28;20056;-66
2021/11/23 01:00:37;;;;;;;14.68;6.60;;;;;;;5.48;86.60;103100.97;5055486;28;20128;-65
2021/11/23 01:03:03;;;;;;;12.85;6.43;;;;;;;5.37;86.46;103088.81;5055337;28;20033;-67
2021/11/23 01:05:28;;;;;;;18.38;7.30;;;;;;;5.38;87.44;103098.19;5055379;28;20049;-65
2021/11/23 01:07:55;;;;;;;15.95;6.75;;;;;;;5.44;87.40;103094.41;5037568;28;20069;-65
2021/11/23 01:10:20;;;;;;;15.40;6.70;;;;;;;5.53;87.78;103091.25;5055289;28;20028;-65
2021/11/23 01:12:46;;;;;;;18.70;5.95;;;;;;;5.59;87.26;103090.88;5055326;28;20025;-65
2021/11/23 01:15:11;;;;;;;18.45;6.10;;;;;;;5.61;86.97;103091.59;5037430;28;20388;-65
2021/11/23 01:17:37;;;;;;;12.77;5.40;;;;;;;5.67;86.84;103090.41;5037445;28;20028;-67
2021/11/23 01:20:05;;;;;;;15.65;5.68;;;;;;;5.71;86.93;103089.25;5055132;28;20057;-65
2021/11/23 01:22:31;;;;;;;14.43;5.53;;;;;;;5.79;86.80;103092.16;5055073;28;20029;-69
2021/11/23 01:24:56;;;;;;;17.20;5.18;;;;;;;5.82;86.83;103097.09;5055138;28;20443;-65
2021/11/23 01:27:22;;;;;;;11.48;4.72;;;;;;;5.80;86.90;103091.22;5037165;28;20035;-67
2021/11/23 01:29:47;;;;;;;19.77;5.13;;;;;;;5.89;85.99;103085.50;5037196;28;20009;-67
2021/11/23 01:32:12;;;;;;;9.25;4.78;;;;;;;5.85;85.89;103083.25;5054986;28;20025;-65
2021/11/23 01:34:37;;;;;;;14.35;4.72;;;;;;;5.87;86.54;103089.94;5055468;28;20063;-65
2021/11/23 01:37:03;;;;;;;12.20;4.93;;;;;;;5.84;87.25;103090.13;5054868;28;20021;-65
2021/11/23 01:39:29;;;;;;;14.45;4.85;;;;;;;5.98;86.83;103088.44;5054770;28;20100;-66
2021/11/23 01:41:54;;;;;;;14.13;4.70;;;;;;;6.01;86.46;103083.09;5036920;28;20471;-66
2021/11/23 01:44:20;;;;;;;10.90;4.63;;;;;;;6.04;86.38;103081.16;5054773;28;20028;-67
2021/11/23 01:46:45;;;;;;;13.77;4.90;;;;;;;6.04;86.65;103086.31;5054719;28;20035;-67
2021/11/23 01:49:11;;;;;;;14.05;4.47;;;;;;;6.09;86.39;103083.41;5054919;28;20017;-66
2021/11/23 01:51:36;;;;;;;11.75;4.35;;;;;;;6.04;86.96;103081.16;5054641;28;20103;-66
2021/11/23 01:54:02;;;;;;;10.00;4.60;;;;;;;6.04;87.23;103083.72;5054483;28;20021;-66
2021/11/23 01:56:27;;;;;;;14.93;4.65;;;;;;;6.00;87.58;103087.41;5054544;28;20031;-66
2021/11/23 01:58:52;;;;;;;10.65;4.53;;;;;;;6.01;87.95;103075.38;5036582;28;20158;-66
2021/11/23 02:01:17;;;;;;;13.48;4.38;;;;;;;6.10;88.06;103073.06;5036522;28;20032;-66
2021/11/23 02:03:43;;;;;;;10.85;4.32;;;;;;;6.20;86.93;103072.44;5036301;28;20103;-66
2021/11/23 02:06:08;;;;;;;9.85;4.13;;;;;;;6.22;87.93;103068.03;5054658;28;20096;-66
2021/11/23 02:08:35;;;;;;;11.95;4.10;;;;;;;6.25;87.61;103078.91;5054289;28;20029;-66
2021/11/23 02:11:00;;;;;;;11.55;4.18;;;;;;;6.20;88.16;103067.31;5054422;28;20039;-66
2021/11/23 02:13:29;;;;;;;10.95;4.47;;;;;;;6.27;87.60;103065.97;5054066;28;20021;-66
2021/11/23 02:15:56;;;;;;;11.02;4.03;;;;;;;6.29;87.44;103066.69;5053784;28;20082;-66
2021/11/23 02:18:23;;;;;;;12.23;4.32;;;;;;;6.30;88.04;103060.63;5036195;28;20361;-66
2021/11/23 02:20:49;;;;;;;12.93;4.00;;;;;;;6.34;88.05;103067.22;5054084;28;20115;-66
2021/11/23 02:23:15;;;;;;;12.55;4.15;;;;;;;6.29;87.91;103057.22;5036075;28;20139;-66
2021/11/23 02:25:40;;;;;;;10.68;3.90;;;;;;;6.31;87.58;103062.28;5053996;28;20032;-66
2021/11/23 02:28:08;;;;;;;10.82;4.43;;;;;;;6.27;88.27;103055.69;5036042;28;20061;-66
2021/11/23 02:30:42;;;;;;;9.10;4.20;;;;;;;6.20;88.78;103062.16;5035976;28;20365;-66
2021/11/23 02:33:07;;;;;;;13.73;4.60;;;;;;;6.20;89.07;103064.75;5053861;28;20519;-65
2021/11/23 02:35:33;;;;;;;11.23;4.20;;;;;;;6.26;88.76;103067.72;5053824;28;20056;-66
2021/11/23 02:37:59;;;;;;;10.32;4.15;;;;;;;6.35;88.40;103056.00;5035948;28;20357;-66
2021/11/23 02:40:25;;;;;;;10.63;3.85;;;;;;;6.31;88.77;103046.88;5053644;28;20029;-66
2021/11/23 02:42:51;;;;;;;10.48;4.47;;;;;;;6.33;88.96;103050.16;5035813;28;20047;-66
2021/11/23 02:45:19;;;;;;;10.27;4.22;;;;;;;6.37;88.71;103051.59;5035812;28;20039;-66
2021/11/23 02:47:45;;;;;;;10.02;4.22;;;;;;;6.37;89.17;103050.78;5053611;28;20029;-66
2021/11/23 02:50:14;;;;;;;10.32;3.65;;;;;;;6.33;89.40;103057.88;5035682;28;20141;-66
2021/11/23 02:52:44;;;;;;;7.97;3.85;;;;;;;6.38;89.46;103050.66;5053572;28;20017;-66
2021/11/23 02:55:09;;;;;;;8.63;3.58;;;;;;;6.45;89.11;103051.91;5053433;28;20033;-66
2021/11/23 02:57:35;;;;;;;10.35;3.88;;;;;;;6.50;89.45;103049.00;5053756;28;20029;-66
2021/11/23 03:00:05;;;;;;;9.00;3.70;;;;;;;6.51;89.46;103048.09;5053366;28;20063;-66
2021/11/23 03:02:30;;;;;;;9.35;3.95;;;;;;;6.53;89.27;103053.94;5035583;28;20031;-66
2021/11/23 03:04:57;;;;;;;10.32;4.00;;;;;;;6.54;90.05;103051.28;5053167;28;20049;-66
2021/11/23 03:07:25;;;;;;;11.23;4.70;;;;;;;6.56;89.47;103056.31;5035493;28;20043;-66
2021/11/23 03:09:51;;;;;;;10.13;3.65;;;;;;;6.54;89.39;103046.13;5035506;28;20103;-66
2021/11/23 03:12:21;;;;;;;12.43;3.95;;;;;;;6.58;89.70;103039.03;5053311;28;20079;-66
2021/11/23 03:14:46;;;;;;;9.77;4.10;;;;;;;6.65;89.74;103040.25;5053817;28;20035;-66
2021/11/23 03:17:13;;;;;;;9.73;3.80;;;;;;;6.69;89.48;103039.09;5035334;28;20108;-66
2021/11/23 03:19:40;;;;;;;8.40;4.07;;;;;;;6.68;89.85;103039.22;5053159;28;20104;-66
2021/11/23 03:22:06;;;;;;;9.55;3.72;;;;;;;6.65;90.36;103032.56;5035370;28;20165;-65
2021/11/23 03:24:31;;;;;;;8.05;3.55;;;;;;;6.68;90.51;103037.47;5035372;28;20111;-65
2021/11/23 03:26:57;;;;;;;14.27;4.03;;;;;;;6.70;90.46;103027.94;5054982;28;20104;-66
2021/11/23 03:29:22;;;;;;;11.48;4.07;;;;;;;6.72;90.12;103026.03;5039386;28;20104;-66
2021/11/23 03:31:48;;;;;;;12.30;4.00;;;;;;;6.76;90.51;103024.06;5057217;28;20033;-65
2021/11/23 03:34:14;;;;;;;9.23;4.00;;;;;;;6.78;90.09;103023.03;5039295;28;20025;-66
2021/11/23 03:36:40;;;;;;;13.52;4.05;;;;;;;6.80;90.22;103025.53;5057154;28;20028;-65
2021/11/23 03:39:07;;;;;;;13.98;3.88;;;;;;;6.85;89.90;103017.47;5057018;28;20024;-66
2021/11/23 03:41:32;;;;;;;10.10;4.22;;;;;;;6.89;90.42;103018.91;5039133;28;20101;-66
2021/11/23 03:43:58;;;;;;;9.57;3.88;;;;;;;6.91;90.34;103019.63;5056987;28;20104;-66
2021/11/23 03:46:23;;;;;;;8.60;3.70;;;;;;;6.90;89.80;103013.66;5056898;28;20029;-66
2021/11/23 03:48:48;;;;;;;11.30;3.70;;;;;;;6.93;90.20;103023.75;5056870;28;20017;-66
2021/11/23 03:51:14;;;;;;;10.48;3.90;;;;;;;6.97;89.63;103021.78;5056917;28;20032;-66
2021/11/23 03:53:39;;;;;;;9.73;4.10;;;;;;;6.98;90.55;103024.22;5056744;28;20025;-66
2021/11/23 03:56:04;;;;;;;12.60;4.18;;;;;;;7.00;91.03;103031.84;5057108;28;20024;-66
2021/11/23 03:58:29;;;;;;;9.80;3.72;;;;;;;7.01;91.08;103028.31;5038787;28;20028;-66
2021/11/23 04:00:55;;;;;;;13.25;4.00;;;;;;;7.08;90.83;103016.69;5056723;28;20033;-66
2021/11/23 04:03:20;;;;;;;9.85;3.63;;;;;;;7.09;90.94;103018.31;5056669;28;20484;-66
2021/11/23 04:05:45;;;;;;;11.00;3.83;;;;;;;7.10;90.73;103022.53;5056483;28;20049;-66
2021/11/23 04:08:11;;;;;;;15.85;3.92;;;;;;;7.03;91.28;103017.94;5056512;28;20029;-66
2021/11/23 04:10:36;;;;;;;8.88;3.80;;;;;;;7.03;91.35;103023.91;5057090;28;20025;-66
2021/11/23 04:13:01;;;;;;;11.65;4.05;;;;;;;7.04;91.51;103028.09;5056657;28;20104;-66
2021/11/23 04:15:27;;;;;;;9.05;3.85;;;;;;;7.03;91.36;103020.53;5038551;28;20032;-66
2021/11/23 04:17:52;;;;;;;9.05;3.95;;;;;;;7.01;91.30;103020.63;5056952;28;20057;-66
2021/11/23 04:20:17;;;;;;;11.88;4.13;;;;;;;7.03;91.37;103021.34;5056255;28;20021;-66
2021/11/23 04:22:43;;;;;;;15.65;3.83;;;;;;;7.02;91.38;103022.28;5056247;28;20035;-66
2021/11/23 04:25:09;;;;;;;10.05;3.78;;;;;;;6.95;92.13;103021.06;5056796;28;20051;-66
2021/11/23 04:27:36;;;;;;;12.50;4.03;;;;;;;6.97;91.63;103017.44;5038312;28;20031;-66
2021/11/23 04:30:02;;;;;;;9.45;4.05;;;;;;;7.00;91.50;103011.28;5056190;28;20070;-66
2021/11/23 04:32:27;;;;;;;10.00;4.20;;;;;;;6.98;91.73;103007.97;5056114;28;20104;-66
2021/11/23 04:34:52;;;;;;;17.90;4.72;;;;;;;7.00;91.83;103016.41;5056047;28;20047;-66
2021/11/23 04:37:18;;;;;;;11.00;4.43;;;;;;;7.03;91.53;103013.63;5055494;28;20518;-66
2021/11/23 04:39:43;;;;;;;10.75;4.18;;;;;;;7.12;91.80;103014.72;5055926;28;20048;-66
2021/11/23 04:42:08;;;;;;;11.63;4.13;;;;;;;7.13;91.37;103006.06;5038169;28;20112;-66
2021/11/23 04:44:34;;;;;;;13.15;4.35;;;;;;;7.18;91.51;103004.81;5055858;28;20028;-66
2021/11/23 04:46:59;;;;;;;6.68;3.90;;;;;;;7.18;91.28;103009.13;5055922;28;20021;-66
2021/11/23 04:49:25;;;;;;;9.85;4.07;;;;;;;7.14;91.79;103010.31;5055774;28;20036;-66
2021/11/23 04:51:50;;;;;;;12.25;4.30;;;;;;;7.17;91.32;103004.94;5037834;28;20021;-65
2021/11/23 04:54:15;;;;;;;8.63;3.97;;;;;;;7.14;91.56;103008.53;5055897;28;20021;-66
2021/11/23 04:56:41;;;;;;;11.60;4.15;;;;;;;7.12;91.52;103004.44;5055645;28;20032;-66
2021/11/23 04:59:06;;;;;;;10.98;4.25;;;;;;;7.01;92.07;103000.06;5055511;28;20024;-66
2021/11/23 05:01:31;;;;;;;14.13;4.32;;;;;;;7.04;91.37;103009.31;5055547;28;20087;-66
2021/11/23 05:03:56;;;;;;;10.93;3.80;;;;;;;6.98;91.66;103002.84;5055857;28;20103;-66
2021/11/23 05:06:22;;;;;;;8.35;3.80;;;;;;;6.99;92.04;103002.75;5056020;28;20091;-66
2021/11/23 05:08:48;;;;;;;11.90;4.15;;;;;;;6.95;91.87;102996.16;5055451;28;20021;-66
2021/11/23 05:11:13;;;;;;;10.63;3.80;;;;;;;6.98;91.53;102998.50;5055323;28;20017;-66
2021/11/23 05:13:38;;;;;;;9.30;4.38;;;;;;;6.94;92.64;102991.97;5055927;28;20116;-66
2021/11/23 05:16:05;;;;;;;9.13;3.92;;;;;;;6.93;92.31;102992.91;5037492;28;20017;-66
2021/11/23 05:18:31;;;;;;;13.88;4.00;;;;;;;6.95;93.10;102995.34;5055161;28;20113;-66
2021/11/23 05:20:56;;;;;;;7.82;4.07;;;;;;;7.00;92.29;102993.28;5055214;28;20112;-66
2021/11/23 05:23:21;;;;;;;9.68;4.00;;;;;;;6.97;92.27;103003.78;5055202;28;20032;-66
2021/11/23 05:25:46;;;;;;;9.90;4.03;;;;;;;7.00;92.61;103008.69;5037249;28;20029;-66
2021/11/23 05:28:12;;;;;;;15.30;3.78;;;;;;;7.05;92.60;103001.50;5055496;28;20028;-66
2021/11/23 05:30:37;;;;;;;7.28;3.83;;;;;;;7.07;92.20;103001.38;5055009;28;20079;-66
2021/11/23 05:33:02;;;;;;;8.43;3.63;;;;;;;7.10;92.08;103001.97;5055293;28;20021;-66
2021/11/23 05:35:28;;;;;;;12.32;3.95;;;;;;;7.06;91.49;102997.97;5055516;28;20025;-66
2021/11/23 05:37:53;;;;;;;14.07;4.18;;;;;;;7.06;91.91;103008.25;5054919;28;20021;-66
2021/11/23 05:40:18;;;;;;;7.68;3.92;;;;;;;7.08;91.69;103003.84;5054979;28;20048;-66
2021/11/23 05:42:44;;;;;;;9.10;3.75;;;;;;;7.11;91.90;103010.53;5036916;28;20021;-66
2021/11/23 05:45:11;;;;;;;10.18;4.00;;;;;;;7.14;91.57;103013.69;5054751;28;20025;-66
2021/11/23 05:47:37;;;;;;;8.93;3.92;;;;;;;7.15;92.11;103014.50;5054750;28;20020;-66
2021/11/23 05:50:04;;;;;;;14.82;4.32;;;;;;;7.19;91.40;103009.03;5035875;28;20112;-66
2021/11/23 05:52:30;;;;;;;9.73;3.75;;;;;;;7.18;91.42;103004.00;5054488;28;20032;-66
2021/11/23 05:54:55;;;;;;;10.75;3.63;;;;;;;7.19;91.24;103006.47;5054540;28;20384;-66
2021/11/23 05:57:20;;;;;;;10.07;4.30;;;;;;;7.25;91.70;103000.06;5054800;28;20087;-66
2021/11/23 05:59:46;;;;;;;10.13;3.88;;;;;;;7.24;91.45;103000.97;5054382;28;20433;-66
2021/11/23 06:02:11;;;;;;;8.30;4.57;;;;;;;7.20;91.51;102994.44;5036490;28;20472;-67
2021/11/23 06:04:36;;;;;;;8.02;4.22;;;;;;;7.20;91.29;102995.25;5054124;28;20107;-67
2021/11/23 06:07:02;;;;;;;10.45;4.90;;;;;;;7.13;91.61;103004.31;5054277;28;20161;-66
2021/11/23 06:09:27;;;;;;;15.77;4.93;;;;;;;7.16;91.44;102998.13;5036411;28;20025;-65
2021/11/23 06:11:52;;;;;;;10.02;4.70;;;;;;;7.13;91.49;103001.75;5054472;28;20029;-65
2021/11/23 06:14:18;;;;;;;12.25;4.47;;;;;;;7.13;91.99;102999.16;5054640;28;20376;-65
2021/11/23 06:16:46;;;;;;;6.75;4.20;;;;;;;7.21;92.21;103012.31;5054109;28;20420;-66
2021/11/23 06:19:13;;;;;;;8.40;4.00;;;;;;;7.23;91.88;103002.72;5036258;28;20029;-65
2021/11/23 06:21:42;;;;;;;7.25;4.00;;;;;;;7.28;91.70;103012.69;5054667;28;20029;-66
2021/11/23 06:24:08;;;;;;;11.35;4.32;;;;;;;7.37;91.38;103008.66;5053943;28;20379;-66
2021/11/23 06:26:34;;;;;;;9.48;3.90;;;;;;;7.40;91.49;103011.00;5053965;28;20017;-65
2021/11/23 06:28:59;;;;;;;10.00;4.88;;;;;;;7.40;91.17;103011.81;5054363;28;20441;-66
2021/11/23 06:31:25;;;;;;;11.15;4.70;;;;;;;7.38;91.70;103011.09;5054219;28;20100;-66
2021/11/23 06:33:54;;;;;;;9.55;4.13;;;;;;;7.42;91.35;103011.69;5053595;28;20112;-66
2021/11/23 06:36:19;;;;;;;8.05;4.00;;;;;;;7.44;91.58;103014.97;5054212;28;20029;-65
2021/11/23 06:38:46;;;;;;;14.10;4.57;;;;;;;7.42;91.63;103017.66;5035976;28;20036;-66
2021/11/23 06:41:12;;;;;;;8.27;4.10;;;;;;;7.42;91.92;103011.69;5054122;28;20047;-66
2021/11/23 06:43:38;;;;;;;10.43;4.45;;;;;;;7.40;92.07;103013.56;5053532;28;20025;-66
2021/11/23 06:46:03;;;;;;;8.93;4.53;;;;;;;7.43;92.06;103021.06;5035607;28;20357;-66
2021/11/23 06:48:28;;;;;;;8.82;4.50;;;;;;;7.40;92.07;103014.38;5053358;28;20021;-66
2021/11/23 06:50:54;;;;;;;12.40;4.97;;;;;;;7.42;91.63;103014.25;5053459;28;20082;-67
2021/11/23 06:53:19;;;;;;;9.07;4.53;;;;;;;7.42;92.00;103021.97;5053809;28;20029;-66
2021/11/23 06:55:44;;;;;;;11.43;4.57;;;;;;;7.42;92.43;103021.97;5053651;28;20031;-66
2021/11/23 06:58:11;;;;;;;11.30;4.90;;;;;;;7.44;92.26;103020.94;5053228;28;20368;-66
2021/11/23 07:00:36;;;;;;;12.68;5.15;;;;;;;7.41;91.83;103028.06;5052951;28;20036;-66
2021/11/23 07:03:01;;;;;;;17.10;5.30;;;;;;;7.43;92.30;103024.44;5053180;28;20414;-66
2021/11/23 07:05:27;;;;;;;14.40;4.78;;;;;;;7.50;92.25;103029.16;5053036;28;20052;-66
2021/11/23 07:07:52;;;;;;;10.55;4.63;;;;;;;7.53;92.40;103042.59;5035250;28;20464;-66
2021/11/23 07:10:18;;;;;;;12.15;5.05;;;;;;;7.49;91.85;103032.66;5053137;28;20055;-66
2021/11/23 07:12:43;;;;;;;12.90;5.50;;;;;;;7.52;92.64;103047.88;5053086;28;20108;-66
2021/11/23 07:15:09;;;;;;;12.10;6.22;;;;;;;7.48;93.01;103052.44;5053312;28;20025;-66
2021/11/23 07:17:35;;;;;;;33.85;17.50;;;;;;;7.53;93.03;103055.47;5052910;28;20025;-67
2021/11/23 07:20:00;;;;;;;15.32;7.97;;;;;;;7.47;92.88;103051.56;5053026;28;20086;-66
2021/11/23 07:22:26;;;;;;;12.25;5.82;;;;;;;7.45;92.81;103056.03;5053087;28;20082;-67
2021/11/23 07:24:52;;;;;;;13.18;5.00;;;;;;;7.49;93.31;103060.97;5052983;28;20098;-67
2021/11/23 07:27:17;;;;;;;11.35;5.13;;;;;;;7.57;93.13;103064.63;5053008;28;20025;-67
2021/11/23 07:29:43;;;;;;;8.32;4.80;;;;;;;7.63;93.00;103065.94;5035069;28;20021;-66
2021/11/23 07:32:10;;;;;;;10.45;5.00;;;;;;;7.61;92.73;103062.63;5052930;28;20029;-66
2021/11/23 07:34:36;;;;;;;11.75;5.22;;;;;;;7.62;93.35;103065.13;5035025;28;20029;-66
2021/11/23 07:37:01;;;;;;;13.48;5.30;;;;;;;7.64;93.30;103070.94;5052802;28;20486;-66
2021/11/23 07:39:27;;;;;;;7.50;4.75;;;;;;;7.64;93.51;103072.69;5052986;28;20036;-66
2021/11/23 07:41:53;;;;;;;11.15;4.78;;;;;;;7.71;93.04;103091.09;5052822;28;20087;-66
2021/11/23 07:44:18;;;;;;;14.07;5.18;;;;;;;7.75;92.94;103083.03;5052781;28;20111;-66
2021/11/23 07:46:43;;;;;;;13.07;5.45;;;;;;;7.81;92.86;103081.78;5053246;28;20028;-66
2021/11/23 07:49:09;;;;;;;15.90;6.50;;;;;;;7.82;92.98;103073.09;5052757;28;20028;-66
2021/11/23 07:51:35;;;;;;;15.40;5.53;;;;;;;7.90;92.62;103087.06;5052690;28;20073;-66
2021/11/23 07:54:01;;;;;;;12.88;4.90;;;;;;;7.91;91.54;103086.16;5034705;28;20116;-66
2021/11/23 07:56:26;;;;;;;13.63;5.07;;;;;;;7.87;92.11;103083.91;5052736;28;20455;-66
2021/11/23 07:58:52;;;;;;;12.90;5.40;;;;;;;7.95;92.08;103083.34;5052415;28;20025;-66
2021/11/23 08:01:17;;;;;;;13.15;5.90;;;;;;;7.95;92.65;103076.44;5034608;28;20387;-66
2021/11/23 08:03:43;;;;;;;9.43;5.45;;;;;;;7.94;92.34;103079.94;5052350;28;20114;-66
2021/11/23 08:06:08;;;;;;;11.68;5.35;;;;;;;8.00;92.37;103084.66;5052584;28;20391;-66
2021/11/23 08:08:34;;;;;;;12.35;5.43;;;;;;;8.10;92.52;103093.31;5034656;28;20087;-66
2021/11/23 08:11:00;;;;;;;20.15;6.50;;;;;;;8.23;91.84;103093.25;5052511;28;20025;-66
2021/11/23 08:13:26;;;;;;;11.80;6.07;;;;;;;8.30;91.45;103093.59;5054984;28;20379;-66
2021/11/23 08:15:51;;;;;;;22.35;6.93;;;;;;;8.31;91.47;103102.94;5056458;28;20029;-65
2021/11/23 08:18:16;;;;;;;20.83;7.25;;;;;;;8.32;92.01;103104.59;5056341;28;20123;-66
2021/11/23 08:20:43;;;;;;;12.65;5.60;;;;;;;8.32;92.07;103108.00;5038388;28;20060;-66
2021/11/23 08:23:08;;;;;;;11.50;5.47;;;;;;;8.31;91.85;103098.59;5038449;28;20021;-66
2021/11/23 08:25:34;;;;;;;13.98;5.65;;;;;;;8.35;92.19;103094.06;5056202;28;20035;-66
2021/11/23 08:27:59;;;;;;;11.63;5.85;;;;;;;8.44;91.61;103092.59;5056207;28;20017;-66
2021/11/23 08:30:24;;;;;;;14.32;4.90;;;;;;;8.44;92.17;103095.16;5056171;28;20017;-65
2021/11/23 08:32:50;;;;;;;13.70;4.15;;;;;;;8.56;92.16;103083.91;5056148;28;20120;-65
2021/11/23 08:35:16;;;;;;;10.90;3.90;;;;;;;8.75;92.08;103091.06;5056032;28;20458;-65
2021/11/23 08:37:42;;;;;;;11.10;3.30;;;;;;;8.84;91.58;103090.34;5055874;28;20020;-65
2021/11/23 08:40:08;;;;;;;15.73;3.50;;;;;;;8.88;91.20;103089.16;5037745;28;20033;-65
2021/11/23 08:42:34;;;;;;;9.10;3.53;;;;;;;8.90;91.47;103082.13;5055535;28;20485;-65
2021/11/23 08:44:59;;;;;;;8.30;3.30;;;;;;;8.97;91.51;103087.63;5037839;28;20034;-65
2021/11/23 08:47:25;;;;;;;11.65;4.10;;;;;;;9.09;90.50;103096.16;5056097;28;20021;-65
2021/11/23 08:49:51;;;;;;;9.73;4.15;;;;;;;9.19;90.06;103087.59;5055404;28;20123;-65
2021/11/23 08:52:18;;;;;;;7.95;3.90;;;;;;;9.31;89.49;103090.94;5037862;28;20186;-65
2021/11/23 08:54:43;;;;;;;8.48;3.20;;;;;;;9.31;89.40;103097.88;5055471;28;20029;-65
2021/11/23 08:57:09;;;;;;;10.63;3.58;;;;;;;9.48;89.11;103102.50;5037648;28;20396;-65
2021/11/23 08:59:42;;;;;;;8.00;4.03;;;;;;;9.48;88.54;103103.31;5055343;28;20020;-65
2021/11/23 09:02:10;;;;;;;12.98;4.38;;;;;;;9.60;88.33;103098.94;5055521;28;20021;-66
2021/11/23 09:04:36;;;;;;;11.93;3.85;;;;;;;9.67;87.64;103101.88;5055276;28;20045;-65
2021/11/23 09:07:04;;;;;;;10.57;4.30;;;;;;;9.77;87.47;103107.91;5055353;28;20483;-66
2021/11/23 09:09:34;;;;;;;9.18;4.15;;;;;;;9.94;87.17;103109.94;5055290;28;20046;-66
2021/11/23 09:12:03;;;;;;;12.27;4.40;;;;;;;10.08;86.51;103108.81;5055295;28;20029;-65
2021/11/23 09:14:35;;;;;;;9.77;3.90;;;;;;;10.22;85.60;103107.66;5037363;28;20373;-65
2021/11/23 09:17:02;;;;;;;7.85;4.00;;;;;;;10.31;85.66;103103.53;5055156;28;20029;-65
2021/11/23 09:19:27;;;;;;;9.70;3.40;;;;;;;10.36;85.52;103103.97;5037161;28;20082;-65
2021/11/23 09:21:53;;;;;;;11.02;3.38;;;;;;;10.54;85.14;103104.19;5037181;28;20421;-66
2021/11/23 09:24:20;;;;;;;7.70;3.13;;;;;;;10.75;83.92;103107.50;5054992;28;20380;-66
2021/11/23 09:26:46;;;;;;;7.25;3.00;;;;;;;10.58;84.54;103108.94;5055050;28;20490;-66
2021/11/23 09:29:13;;;;;;;5.68;2.78;;;;;;;10.63;84.25;103108.56;5054909;28;20025;-66
2021/11/23 09:31:39;;;;;;;8.88;3.10;;;;;;;10.48;84.47;103110.69;5054946;28;20021;-65
2021/11/23 09:34:04;;;;;;;5.63;2.55;;;;;;;10.20;84.74;103114.72;5054985;28;20028;-65
2021/11/23 09:36:29;;;;;;;7.43;3.20;;;;;;;9.99;85.92;103114.72;5054762;28;20033;-65
2021/11/23 09:38:55;;;;;;;7.47;2.90;;;;;;;9.78;86.67;103111.31;5036770;28;20048;-66
2021/11/23 09:41:20;;;;;;;9.27;3.75;;;;;;;9.73;87.03;103119.44;5054595;28;20029;-66
2021/11/23 09:43:45;;;;;;;12.13;3.85;;;;;;;12.03;80.06;103122.25;5055542;28;20025;-65
2021/11/23 09:46:11;;;;;;;12.82;3.83;;;;;;;16.93;61.76;103121.22;5036729;28;20424;-66
2021/11/23 09:48:42;;;;;;;11.45;4.07;;;;;;;20.51;50.27;103119.28;5054752;28;20025;-67
2021/11/23 09:51:17;;;;;;;6.95;2.90;;;;;;;20.65;48.42;103117.53;5054359;28;20033;-66
2021/11/23 09:53:43;;;;;;;7.25;2.80;;;;;;;15.50;63.71;103112.41;5036501;28;20029;-67
2021/11/23 09:56:10;;;;;;;10.32;2.70;;;;;;;13.63;71.61;103108.84;5036477;28;20029;-66
2021/11/23 10:02:00;;;;;;;6.80;2.35;;;;;;;15.95;63.96;103111.09;5054355;28;20419;-66
2021/11/23 10:04:28;;;;;;;4.53;1.63;;;;;;;13.38;71.76;103115.63;5054107;28;20488;-67
2021/11/23 10:06:55;;;;;;;6.53;2.08;;;;;;;12.13;77.12;103116.06;5054218;28;20471;-68
2021/11/23 10:09:39;;;;;;;7.15;2.22;;;;;;;11.33;80.55;103119.75;5054707;28;20052;-65
2021/11/23 10:12:15;;;;;;;5.75;2.50;;;;;;;10.79;83.20;103116.66;5036493;28;20472;-65
2021/11/23 10:15:01;;;;;;;3.35;1.60;;;;;;;10.65;83.00;103124.78;5036345;28;20025;-66
2021/11/23 10:17:27;;;;;;;6.30;1.70;;;;;;;10.70;83.06;103129.53;5036231;28;20165;-66
2021/11/23 10:19:52;;;;;;;4.30;1.50;;;;;;;10.47;82.31;103126.31;5036166;28;20029;-66
2021/11/23 10:22:33;;;;;;;8.40;1.20;;;;;;;10.45;81.97;103125.63;5054104;28;20103;-66
2021/11/23 10:25:01;;;;;;;5.03;1.42;;;;;;;10.33;83.43;103117.97;5054260;28;20053;-66
2021/11/23 10:27:26;;;;;;;3.95;1.02;;;;;;;10.34;83.40;103118.78;5036080;28;20028;-66
2021/11/23 10:29:52;;;;;;;3.83;0.88;;;;;;;10.31;82.59;103111.28;5053980;28;20025;-66
2021/11/23 10:32:17;;;;;;;4.30;1.10;;;;;;;10.46;81.94;103109.16;5036025;28;20020;-66
2021/11/23 10:34:44;;;;;;;7.95;0.85;;;;;;;10.30;83.07;103117.38;5053488;28;20066;-66
2021/11/23 10:37:26;;;;;;;3.90;0.70;;;;;;;10.42;82.01;103107.81;5035838;28;20073;-66
2021/11/23 10:39:52;;;;;;;2.22;0.50;;;;;;;10.27;83.06;103100.38;5035800;28;20120;-65
2021/11/23 10:42:17;;;;;;;7.15;1.00;;;;;;;10.27;83.07;103104.72;5053727;28;20096;-66
2021/11/23 10:44:52;;;;;;;4.88;1.17;;;;;;;10.24;82.89;103100.63;5035739;28;20113;-66
2021/11/23 10:47:19;;;;;;;3.92;0.70;;;;;;;10.31;83.00;103100.94;5053910;28;20025;-66
2021/11/23 10:53:16;;;;;;;10.48;1.60;;;;;;;10.29;82.66;103090.72;5054178;28;20035;-66
2021/11/23 10:55:44;;;;;;;3.10;1.27;;;;;;;10.43;82.14;103099.09;5053494;28;20112;-66
2021/11/23 10:58:11;;;;;;;3.33;0.90;;;;;;;10.50;81.14;103100.19;5053438;28;20021;-66
2021/11/23 11:00:39;;;;;;;3.83;0.95;;;;;;;10.54;81.57;103104.19;5053355;28;20029;-68
2021/11/23 11:03:06;;;;;;;1.67;0.85;;;;;;;10.67;81.42;103103.94;5053246;28;20104;-67
2021/11/23 11:05:39;;;;;;;7.47;1.20;;;;;;;10.64;81.08;103105.03;5053198;28;20434;-66
2021/11/23 11:08:06;;;;;;;5.65;1.48;;;;;;;10.82;80.68;103092.31;5035596;28;20037;-66
2021/11/23 11:10:33;;;;;;;4.82;0.93;;;;;;;10.99;80.02;103088.22;5053965;28;20021;-67
2021/11/23 11:13:01;;;;;;;7.95;1.15;;;;;;;11.34;78.87;103085.16;5035709;28;20507;-67
2021/11/23 11:15:37;;;;;;;3.78;0.88;;;;;;;11.57;76.91;103088.31;5035297;28;20021;-65
2021/11/23 11:18:08;;;;;;;4.25;1.25;;;;;;;11.61;77.31;103092.25;5035398;28;20433;-66
2021/11/23 11:20:44;;;;;;;5.07;0.70;;;;;;;11.72;78.11;103088.69;5035063;28;20028;-65
2021/11/23 11:23:22;;;;;;;5.20;0.82;;;;;;;12.12;75.01;103082.53;5053723;28;20109;-67
2021/11/23 11:26:27;;;;;;;2.55;0.50;;;;;;;12.44;74.10;103084.72;5053454;28;20017;-67
2021/11/23 11:29:01;;;;;;;4.25;1.00;;;;;;;13.18;71.62;103075.97;5032724;28;20090;-67
2021/11/23 11:31:39;;;;;;;3.83;0.90;;;;;;;15.58;62.83;103076.72;5053575;28;20109;-66